createdAt,value
2019-05-05T00:00:11.349Z,959.53
2019-05-05T00:01:11.323Z,959.50
2019-05-05T00:02:11.308Z,959.46
2019-05-05T00:03:11.297Z,959.49
2019-05-05T00:04:11.298Z,959.53
2019-05-05T00:05:11.293Z,959.49
2019-05-05T00:06:11.296Z,959.51
2019-05-05T00:07:11.251Z,959.48
2019-05-05T00:08:11.241Z,959.48
2019-05-05T00:09:11.227Z,959.46
2019-05-05T00:10:11.241Z,959.43
2019-05-05T00:11:11.243Z,959.43
2019-05-05T00:12:11.233Z,959.41
2019-05-05T00:13:11.190Z,959.43
2019-05-05T00:14:11.179Z,959.40
2019-05-05T00:15:11.164Z,959.42
2019-05-05T00:16:11.175Z,959.46
2019-05-05T00:17:11.181Z,959.45
2019-05-05T00:18:11.130Z,959.53
2019-05-05T00:19:11.120Z,959.47
2019-05-05T00:20:11.107Z,959.55
2019-05-05T00:21:11.108Z,959.59
2019-05-05T00:22:11.103Z,959.58
2019-05-05T00:23:11.101Z,959.54
2019-05-05T00:24:11.064Z,959.54
2019-05-05T00:25:11.052Z,959.57
2019-05-05T00:26:11.042Z,959.62
2019-05-05T00:27:11.046Z,959.64
2019-05-05T00:28:11.057Z,959.63
2019-05-05T00:29:11.062Z,959.65
2019-05-05T00:30:11.002Z,959.65
2019-05-05T00:31:10.991Z,959.69
2019-05-05T00:32:10.976Z,959.73
2019-05-05T00:33:10.979Z,959.72
2019-05-05T00:34:10.978Z,959.71
2019-05-05T00:35:10.975Z,959.68
2019-05-05T00:36:10.935Z,959.67
2019-05-05T00:37:10.928Z,959.71
2019-05-05T00:38:10.913Z,959.67
2019-05-05T00:39:10.933Z,959.69
2019-05-05T00:40:10.905Z,959.70
2019-05-05T00:41:10.900Z,959.67
2019-05-05T00:42:10.865Z,959.73
2019-05-05T00:43:10.857Z,959.77
2019-05-05T00:44:10.871Z,959.75
2019-05-05T00:45:10.846Z,959.72
2019-05-05T00:46:10.843Z,959.73
2019-05-05T00:47:10.831Z,959.81
2019-05-05T00:48:10.801Z,959.80
2019-05-05T00:49:10.787Z,959.77
2019-05-05T00:50:10.790Z,959.81
2019-05-05T00:51:10.787Z,959.85
2019-05-05T00:52:10.784Z,959.86
2019-05-05T00:53:10.767Z,959.87
2019-05-05T00:54:10.735Z,959.97
2019-05-05T00:55:10.741Z,959.92
2019-05-05T00:56:10.714Z,959.94
2019-05-05T00:57:10.713Z,959.95
2019-05-05T00:58:10.714Z,959.98
2019-05-05T00:59:10.697Z,959.95
2019-05-05T01:00:10.680Z,960.02
2019-05-05T01:01:10.664Z,959.98
2019-05-05T01:02:10.648Z,960.03
2019-05-05T01:03:10.645Z,960.01
2019-05-05T01:04:10.658Z,960.03
2019-05-05T01:05:10.640Z,960.08
2019-05-05T01:06:10.655Z,960.01
2019-05-05T01:07:10.602Z,960.03
2019-05-05T01:08:10.582Z,960.08
2019-05-05T01:09:10.592Z,960.03
2019-05-05T01:10:10.578Z,959.95
2019-05-05T01:11:10.554Z,960.01
2019-05-05T01:12:10.552Z,960.03
2019-05-05T01:13:10.526Z,960.01
2019-05-05T01:14:10.526Z,960.02
2019-05-05T01:15:10.520Z,960.06
2019-05-05T01:16:10.515Z,959.97
2019-05-05T01:17:10.487Z,960.01
2019-05-05T01:18:10.479Z,959.99
2019-05-05T01:19:10.454Z,960.03
2019-05-05T01:20:11.024Z,960.04
2019-05-05T01:21:10.455Z,960.03
2019-05-05T01:22:10.456Z,960.02
2019-05-05T01:23:10.412Z,960.13
2019-05-05T01:24:10.411Z,960.10
2019-05-05T01:25:10.390Z,960.15
2019-05-05T01:26:10.400Z,960.12
2019-05-05T01:27:10.387Z,960.21
2019-05-05T01:28:10.402Z,960.17
2019-05-05T01:29:10.346Z,960.26
2019-05-05T01:30:10.335Z,960.23
2019-05-05T01:31:10.337Z,960.24
2019-05-05T01:32:10.327Z,960.27
2019-05-05T01:33:10.317Z,960.26
2019-05-05T01:34:10.293Z,960.29
2019-05-05T01:35:10.292Z,960.25
2019-05-05T01:36:10.274Z,960.28
2019-05-05T01:37:10.262Z,960.32
2019-05-05T01:38:10.304Z,960.26
2019-05-05T01:39:10.264Z,960.34
2019-05-05T01:40:10.230Z,960.37
2019-05-05T01:41:10.224Z,960.46
2019-05-05T01:42:10.220Z,960.40
2019-05-05T01:43:10.206Z,960.44
2019-05-05T01:44:10.208Z,960.45
2019-05-05T01:45:10.199Z,960.45
2019-05-05T01:46:10.158Z,960.44
2019-05-05T01:47:10.150Z,960.42
2019-05-05T01:48:10.140Z,960.36
2019-05-05T01:49:10.176Z,960.43
2019-05-05T01:50:20.430Z,960.48
2019-05-05T01:51:10.126Z,960.44
2019-05-05T01:52:10.099Z,960.43
2019-05-05T01:53:10.084Z,960.39
2019-05-05T01:54:10.074Z,960.43
2019-05-05T01:55:10.084Z,960.46
2019-05-05T01:56:10.070Z,960.42
2019-05-05T01:57:10.065Z,960.43
2019-05-05T01:58:10.028Z,960.43
2019-05-05T01:59:10.027Z,960.43
2019-05-05T02:00:10.042Z,960.41
2019-05-05T02:01:10.012Z,960.44
2019-05-05T02:02:09.995Z,960.46
2019-05-05T02:03:10.008Z,960.45
2019-05-05T02:04:09.968Z,960.40
2019-05-05T02:05:09.964Z,960.39
2019-05-05T02:06:09.962Z,960.39
2019-05-05T02:07:09.939Z,960.42
2019-05-05T02:08:09.968Z,960.42
2019-05-05T02:09:09.939Z,960.38
2019-05-05T02:10:09.902Z,960.38
2019-05-05T02:11:09.954Z,960.38
2019-05-05T02:12:09.879Z,960.41
2019-05-05T02:13:09.872Z,960.43
2019-05-05T02:14:10.524Z,960.38
2019-05-05T02:15:09.892Z,960.42
2019-05-05T02:16:09.834Z,960.42
2019-05-05T02:17:09.838Z,960.36
2019-05-05T02:18:09.814Z,960.41
2019-05-05T02:19:09.810Z,960.39
2019-05-05T02:20:09.807Z,960.30
2019-05-05T02:21:09.779Z,960.32
2019-05-05T02:22:09.816Z,960.33
2019-05-05T02:23:09.771Z,960.28
2019-05-05T02:24:09.750Z,960.29
2019-05-05T02:25:09.749Z,960.25
2019-05-05T02:26:09.749Z,960.26
2019-05-05T02:27:09.716Z,960.20
2019-05-05T02:28:09.715Z,960.25
2019-05-05T02:29:09.692Z,960.23
2019-05-05T02:30:09.711Z,960.25
2019-05-05T02:31:09.674Z,960.24
2019-05-05T02:32:09.681Z,960.20
2019-05-05T02:33:09.683Z,960.16
2019-05-05T02:34:09.641Z,960.20
2019-05-05T02:35:09.625Z,960.17
2019-05-05T02:36:09.629Z,960.16
2019-05-05T02:37:09.618Z,960.14
2019-05-05T02:38:09.615Z,960.18
2019-05-05T02:39:09.587Z,960.11
2019-05-05T02:40:09.564Z,960.10
2019-05-05T02:41:09.563Z,960.18
2019-05-05T02:42:09.576Z,960.20
2019-05-05T02:43:09.564Z,960.16
2019-05-05T02:44:09.562Z,960.17
2019-05-05T02:45:09.576Z,960.17
2019-05-05T02:46:09.501Z,960.18
2019-05-05T02:47:09.493Z,960.21
2019-05-05T02:48:09.511Z,960.15
2019-05-05T02:49:09.492Z,960.18
2019-05-05T02:50:09.489Z,960.25
2019-05-05T02:51:09.448Z,960.22
2019-05-05T02:52:09.432Z,960.19
2019-05-05T02:53:09.428Z,960.21
2019-05-05T02:54:09.421Z,960.17
2019-05-05T02:55:09.428Z,960.21
2019-05-05T02:56:09.392Z,960.21
2019-05-05T02:57:09.384Z,960.23
2019-05-05T02:58:09.368Z,960.22
2019-05-05T02:59:09.369Z,960.26
2019-05-05T03:00:09.373Z,960.23
2019-05-05T03:01:09.378Z,960.23
2019-05-05T03:02:09.322Z,960.21
2019-05-05T03:03:09.312Z,960.31
2019-05-05T03:04:09.305Z,960.28
2019-05-05T03:05:09.303Z,960.24
2019-05-05T03:06:09.316Z,960.30
2019-05-05T03:07:09.328Z,960.25
2019-05-05T03:08:09.255Z,960.29
2019-05-05T03:09:09.244Z,960.30
2019-05-05T03:10:09.234Z,960.28
2019-05-05T03:11:09.243Z,960.31
2019-05-05T03:12:10.976Z,960.36
2019-05-05T03:13:09.200Z,960.32
2019-05-05T03:14:09.200Z,960.38
2019-05-05T03:15:09.185Z,960.37
2019-05-05T03:16:09.171Z,960.42
2019-05-05T03:17:09.182Z,960.36
2019-05-05T03:18:09.156Z,960.46
2019-05-05T03:19:09.132Z,960.45
2019-05-05T03:20:09.128Z,960.50
2019-05-05T03:21:09.121Z,960.55
2019-05-05T03:22:09.119Z,960.53
2019-05-05T03:23:09.113Z,960.57
2019-05-05T03:24:09.096Z,960.65
2019-05-05T03:25:09.072Z,960.69
2019-05-05T03:26:09.056Z,960.63
2019-05-05T03:27:09.055Z,960.65
2019-05-05T03:28:09.070Z,960.61
2019-05-05T03:29:09.030Z,960.67
2019-05-05T03:30:09.033Z,960.61
2019-05-05T03:31:09.006Z,960.66
2019-05-05T03:32:11.632Z,960.71
2019-05-05T03:33:08.989Z,960.78
2019-05-05T03:34:08.990Z,960.77
2019-05-05T03:35:08.971Z,960.79
2019-05-05T03:36:08.962Z,960.81
2019-05-05T03:37:08.937Z,960.89
2019-05-05T03:38:08.923Z,960.84
2019-05-05T03:39:08.934Z,960.78
2019-05-05T03:40:08.922Z,960.82
2019-05-05T03:41:08.910Z,960.85
2019-05-05T03:42:08.899Z,960.83
2019-05-05T03:43:08.876Z,960.88
2019-05-05T03:44:08.869Z,960.90
2019-05-05T03:45:08.858Z,960.85
2019-05-05T03:46:08.861Z,960.90
2019-05-05T03:47:08.853Z,960.85
2019-05-05T03:48:08.860Z,960.85
2019-05-05T03:49:08.815Z,960.86
2019-05-05T03:50:08.819Z,960.92
2019-05-05T03:51:18.241Z,960.85
2019-05-05T03:52:08.794Z,960.85
2019-05-05T03:53:08.787Z,960.93
2019-05-05T03:54:08.775Z,960.86
2019-05-05T03:55:08.746Z,960.88
2019-05-05T03:56:08.740Z,960.92
2019-05-05T03:57:08.724Z,960.87
2019-05-05T03:58:08.713Z,960.93
2019-05-05T03:59:08.729Z,960.94
2019-05-05T04:00:08.710Z,960.90
2019-05-05T04:01:08.693Z,960.95
2019-05-05T04:02:08.664Z,960.97
2019-05-05T04:03:08.656Z,960.97
2019-05-05T04:04:08.658Z,960.91
2019-05-05T04:05:08.644Z,960.92
2019-05-05T04:06:08.621Z,960.93
2019-05-05T04:07:08.612Z,960.95
2019-05-05T04:08:08.596Z,960.88
2019-05-05T04:09:08.591Z,960.92
2019-05-05T04:10:08.598Z,960.89
2019-05-05T04:11:08.583Z,960.91
2019-05-05T04:12:08.588Z,960.89
2019-05-05T04:13:08.546Z,960.93
2019-05-05T04:14:08.530Z,960.95
2019-05-05T04:15:08.540Z,960.97
2019-05-05T04:16:08.527Z,961.01
2019-05-05T04:17:08.533Z,961.05
2019-05-05T04:18:08.498Z,961.07
2019-05-05T04:19:08.491Z,961.06
2019-05-05T04:20:08.491Z,961.01
2019-05-05T04:21:08.466Z,961.05
2019-05-05T04:22:08.461Z,961.04
2019-05-05T04:23:08.461Z,961.03
2019-05-05T04:24:08.424Z,961.07
2019-05-05T04:25:08.409Z,961.03
2019-05-05T04:26:08.412Z,961.04
2019-05-05T04:27:08.403Z,961.05
2019-05-05T04:28:08.404Z,961.04
2019-05-05T04:29:08.399Z,961.02
2019-05-05T04:30:08.367Z,961.05
2019-05-05T04:31:08.350Z,960.99
2019-05-05T04:32:08.332Z,960.98
2019-05-05T04:33:08.344Z,961.05
2019-05-05T04:34:08.366Z,961.05
2019-05-05T04:35:08.323Z,961.04
2019-05-05T04:36:08.287Z,961.09
2019-05-05T04:37:08.276Z,961.12
2019-05-05T04:38:08.269Z,961.09
2019-05-05T04:39:08.282Z,961.12
2019-05-05T04:40:08.275Z,961.12
2019-05-05T04:41:08.266Z,961.18
2019-05-05T04:42:08.223Z,961.09
2019-05-05T04:43:08.209Z,961.14
2019-05-05T04:44:08.200Z,961.09
2019-05-05T04:45:08.223Z,961.17
2019-05-05T04:46:08.191Z,961.22
2019-05-05T04:47:08.201Z,961.23
2019-05-05T04:48:08.164Z,961.21
2019-05-05T04:49:08.143Z,961.31
2019-05-05T04:50:08.168Z,961.31
2019-05-05T04:51:08.153Z,961.32
2019-05-05T04:52:08.125Z,961.26
2019-05-05T04:53:08.102Z,961.24
2019-05-05T04:54:08.096Z,961.32
2019-05-05T04:55:08.078Z,961.28
2019-05-05T04:56:08.091Z,961.33
2019-05-05T04:57:08.071Z,961.26
2019-05-05T04:58:08.064Z,961.41
2019-05-05T04:59:08.063Z,961.39
2019-05-05T05:00:08.024Z,961.48
2019-05-05T05:01:08.030Z,961.54
2019-05-05T05:02:08.009Z,961.53
2019-05-05T05:03:08.022Z,961.55
2019-05-05T05:04:07.997Z,961.51
2019-05-05T05:05:08.001Z,961.57
2019-05-05T05:06:07.960Z,961.60
2019-05-05T05:07:07.955Z,961.62
2019-05-05T05:08:07.942Z,961.62
2019-05-05T05:09:07.939Z,961.56
2019-05-05T05:10:07.931Z,961.67
2019-05-05T05:11:07.950Z,961.68
2019-05-05T05:12:07.907Z,961.68
2019-05-05T05:13:07.879Z,961.65
2019-05-05T05:14:07.886Z,961.70
2019-05-05T05:15:07.876Z,961.72
2019-05-05T05:16:07.868Z,961.73
2019-05-05T05:17:07.875Z,961.69
2019-05-05T05:18:07.834Z,961.70
2019-05-05T05:19:07.817Z,961.71
2019-05-05T05:20:07.825Z,961.73
2019-05-05T05:21:07.819Z,961.72
2019-05-05T05:22:07.821Z,961.75
2019-05-05T05:23:07.775Z,961.75
2019-05-05T05:24:07.832Z,961.76
2019-05-05T05:25:07.756Z,961.80
2019-05-05T05:26:07.763Z,961.83
2019-05-05T05:27:07.751Z,961.87
2019-05-05T05:28:07.749Z,961.92
2019-05-05T05:29:07.702Z,961.87
2019-05-05T05:30:07.694Z,961.91
2019-05-05T05:31:07.689Z,961.96
2019-05-05T05:32:07.696Z,961.96
2019-05-05T05:33:07.708Z,961.93
2019-05-05T05:34:07.680Z,961.95
2019-05-05T05:35:07.638Z,961.97
2019-05-05T05:36:07.626Z,961.95
2019-05-05T05:37:07.619Z,962.02
2019-05-05T05:38:07.610Z,961.98
2019-05-05T05:39:07.618Z,961.95
2019-05-05T05:40:07.615Z,961.98
2019-05-05T05:41:07.574Z,961.99
2019-05-05T05:42:07.556Z,962.01
2019-05-05T05:43:07.553Z,961.94
2019-05-05T05:44:07.570Z,961.94
2019-05-05T05:45:07.543Z,961.91
2019-05-05T05:46:07.549Z,961.94
2019-05-05T05:47:07.508Z,961.88
2019-05-05T05:48:07.490Z,961.95
2019-05-05T05:49:07.485Z,961.89
2019-05-05T05:50:07.503Z,961.94
2019-05-05T05:51:07.494Z,961.94
2019-05-05T05:52:15.915Z,961.94
2019-05-05T05:53:08.435Z,961.96
2019-05-05T05:54:07.424Z,961.96
2019-05-05T05:55:07.449Z,962.07
2019-05-05T05:56:07.425Z,962.09
2019-05-05T05:57:07.392Z,962.10
2019-05-05T05:58:07.393Z,962.14
2019-05-05T05:59:07.390Z,962.20
2019-05-05T06:00:07.374Z,962.19
2019-05-05T06:01:07.361Z,962.18
2019-05-05T06:02:12.277Z,962.19
2019-05-05T06:03:07.349Z,962.19
2019-05-05T06:04:07.330Z,962.17
2019-05-05T06:05:07.326Z,962.17
2019-05-05T06:06:07.306Z,962.22
2019-05-05T06:07:07.288Z,962.19
2019-05-05T06:08:07.303Z,962.22
2019-05-05T06:09:07.265Z,962.23
2019-05-05T06:10:07.272Z,962.24
2019-05-05T06:11:07.250Z,962.19
2019-05-05T06:12:07.240Z,962.15
2019-05-05T06:13:07.243Z,962.23
2019-05-05T06:14:07.218Z,962.22
2019-05-05T06:15:07.195Z,962.24
2019-05-05T06:16:07.236Z,962.25
2019-05-05T06:17:07.178Z,962.25
2019-05-05T06:18:07.181Z,962.25
2019-05-05T06:19:07.171Z,962.29
2019-05-05T06:20:07.154Z,962.34
2019-05-05T06:21:07.128Z,962.35
2019-05-05T06:22:07.120Z,962.35
2019-05-05T06:23:07.126Z,962.35
2019-05-05T06:24:07.102Z,962.38
2019-05-05T06:25:08.068Z,962.41
2019-05-05T06:26:07.370Z,962.35
2019-05-05T06:27:07.071Z,962.34
2019-05-05T06:28:07.068Z,962.42
2019-05-05T06:29:07.040Z,962.45
2019-05-05T06:30:07.039Z,962.47
2019-05-05T06:31:07.042Z,962.46
2019-05-05T06:32:07.023Z,962.46
2019-05-05T06:33:07.004Z,962.44
2019-05-05T06:34:06.994Z,962.48
2019-05-05T06:35:06.983Z,962.44
2019-05-05T06:36:06.974Z,962.48
2019-05-05T06:37:06.967Z,962.54
2019-05-05T06:38:06.983Z,962.54
2019-05-05T06:39:06.931Z,962.54
2019-05-05T06:40:06.921Z,962.59
2019-05-05T06:41:06.910Z,962.54
2019-05-05T06:42:06.910Z,962.56
2019-05-05T06:43:06.911Z,962.56
2019-05-05T06:44:06.902Z,962.60
2019-05-05T06:45:06.870Z,962.55
2019-05-05T06:46:06.857Z,962.54
2019-05-05T06:47:06.840Z,962.61
2019-05-05T06:48:06.845Z,962.58
2019-05-05T06:49:06.865Z,962.65
2019-05-05T06:50:06.807Z,962.57
2019-05-05T06:51:06.852Z,962.63
2019-05-05T06:52:06.786Z,962.67
2019-05-05T06:53:06.775Z,962.59
2019-05-05T06:54:06.771Z,962.60
2019-05-05T06:55:06.776Z,962.62
2019-05-05T06:56:06.740Z,962.67
2019-05-05T06:57:06.735Z,962.65
2019-05-05T06:58:06.742Z,962.65
2019-05-05T06:59:06.714Z,962.68
2019-05-05T07:00:06.729Z,962.63
2019-05-05T07:01:06.701Z,962.66
2019-05-05T07:02:06.684Z,962.66
2019-05-05T07:03:07.845Z,962.71
2019-05-05T07:04:06.659Z,962.64
2019-05-05T07:05:06.662Z,962.63
2019-05-05T07:06:06.659Z,962.68
2019-05-05T07:07:06.644Z,962.69
2019-05-05T07:08:06.612Z,962.71
2019-05-05T07:09:06.597Z,962.71
2019-05-05T07:10:06.591Z,962.68
2019-05-05T07:11:06.646Z,962.75
2019-05-05T07:12:06.577Z,962.76
2019-05-05T07:13:06.579Z,962.75
2019-05-05T07:14:06.541Z,962.83
2019-05-05T07:15:06.532Z,962.77
2019-05-05T07:16:06.592Z,962.73
2019-05-05T07:17:06.528Z,962.85
2019-05-05T07:18:06.514Z,962.79
2019-05-05T07:19:06.517Z,962.78
2019-05-05T07:20:06.489Z,962.79
2019-05-05T07:21:06.493Z,962.80
2019-05-05T07:22:06.472Z,962.82
2019-05-05T07:23:06.449Z,962.83
2019-05-05T07:24:06.443Z,962.83
2019-05-05T07:25:06.420Z,962.82
2019-05-05T07:26:06.417Z,962.78
2019-05-05T07:27:06.397Z,962.84
2019-05-05T07:28:06.400Z,962.86
2019-05-05T07:29:06.409Z,962.86
2019-05-05T07:30:06.386Z,962.91
2019-05-05T07:31:06.413Z,962.95
2019-05-05T07:32:06.393Z,962.87
2019-05-05T07:33:06.332Z,962.95
2019-05-05T07:34:06.326Z,962.99
2019-05-05T07:35:06.328Z,962.97
2019-05-05T07:36:06.328Z,962.97
2019-05-05T07:37:06.293Z,962.98
2019-05-05T07:38:06.298Z,962.99
2019-05-05T07:39:06.268Z,962.99
2019-05-05T07:40:06.258Z,963.03
2019-05-05T07:41:06.261Z,962.99
2019-05-05T07:42:06.258Z,963.04
2019-05-05T07:43:06.223Z,963.04
2019-05-05T07:44:06.206Z,963.02
2019-05-05T07:45:19.283Z,963.11
2019-05-05T07:46:07.201Z,963.09
2019-05-05T07:47:06.198Z,963.13
2019-05-05T07:48:06.199Z,963.19
2019-05-05T07:49:06.158Z,963.20
2019-05-05T07:50:06.143Z,963.17
2019-05-05T07:51:06.136Z,963.15
2019-05-05T07:52:06.272Z,963.11
2019-05-05T07:53:14.479Z,963.16
2019-05-05T07:54:06.127Z,963.13
2019-05-05T07:55:06.090Z,963.12
2019-05-05T07:56:07.750Z,963.15
2019-05-05T07:57:06.077Z,963.18
2019-05-05T07:58:06.077Z,963.17
2019-05-05T07:59:06.050Z,963.19
2019-05-05T08:00:06.029Z,963.17
2019-05-05T08:01:06.025Z,963.26
2019-05-05T08:02:06.029Z,963.22
2019-05-05T08:03:06.008Z,963.25
2019-05-05T08:04:05.996Z,963.28
2019-05-05T08:05:05.997Z,963.29
2019-05-05T08:06:05.970Z,963.26
2019-05-05T08:07:05.973Z,963.28
2019-05-05T08:08:05.946Z,963.32
2019-05-05T08:09:05.959Z,963.36
2019-05-05T08:10:05.950Z,963.29
2019-05-05T08:11:05.928Z,963.29
2019-05-05T08:12:05.905Z,963.30
2019-05-05T08:13:05.885Z,963.31
2019-05-05T08:14:05.906Z,963.25
2019-05-05T08:15:05.872Z,963.26
2019-05-05T08:16:05.868Z,963.30
2019-05-05T08:17:05.841Z,963.31
2019-05-05T08:18:05.835Z,963.26
2019-05-05T08:19:05.821Z,963.22
2019-05-05T08:20:05.843Z,963.34
2019-05-05T08:21:05.838Z,963.31
2019-05-05T08:22:05.819Z,963.34
2019-05-05T08:23:08.217Z,963.29
2019-05-05T08:24:05.763Z,963.33
2019-05-05T08:25:05.817Z,963.31
2019-05-05T08:26:05.747Z,963.31
2019-05-05T08:27:05.811Z,963.30
2019-05-05T08:28:05.738Z,963.33
2019-05-05T08:29:05.713Z,963.35
2019-05-05T08:30:05.702Z,963.29
2019-05-05T08:31:05.708Z,963.36
2019-05-05T08:32:05.690Z,963.30
2019-05-05T08:33:05.682Z,963.33
2019-05-05T08:34:05.692Z,963.31
2019-05-05T08:35:05.646Z,963.24
2019-05-05T08:36:05.650Z,963.31
2019-05-05T08:37:05.622Z,963.33
2019-05-05T08:38:05.619Z,963.27
2019-05-05T08:39:05.620Z,963.20
2019-05-05T08:40:05.612Z,963.24
2019-05-05T08:41:05.587Z,963.24
2019-05-05T08:42:05.569Z,963.31
2019-05-05T08:43:05.558Z,963.26
2019-05-05T08:44:05.565Z,963.27
2019-05-05T08:45:05.536Z,963.27
2019-05-05T08:46:05.548Z,963.32
2019-05-05T08:47:05.533Z,963.23
2019-05-05T08:48:05.495Z,963.29
2019-05-05T08:49:05.496Z,963.25
2019-05-05T08:50:05.480Z,963.24
2019-05-05T08:51:05.491Z,963.25
2019-05-05T08:52:05.451Z,963.27
2019-05-05T08:53:08.378Z,963.27
2019-05-05T08:54:05.435Z,963.25
2019-05-05T08:55:05.422Z,963.20
2019-05-05T08:56:05.420Z,963.15
2019-05-05T08:57:05.430Z,963.16
2019-05-05T08:58:05.432Z,963.14
2019-05-05T08:59:05.381Z,963.17
2019-05-05T09:00:05.365Z,963.24
2019-05-05T09:01:05.354Z,963.13
2019-05-05T09:02:05.366Z,963.13
2019-05-05T09:03:05.367Z,963.14
2019-05-05T09:04:05.351Z,963.12
2019-05-05T09:05:05.314Z,963.16
2019-05-05T09:06:05.301Z,963.10
2019-05-05T09:07:05.303Z,963.05
2019-05-05T09:08:05.394Z,963.14
2019-05-05T09:09:05.288Z,963.11
2019-05-05T09:10:05.260Z,963.13
2019-05-05T09:11:05.243Z,963.13
2019-05-05T09:12:05.236Z,963.17
2019-05-05T09:13:05.231Z,963.12
2019-05-05T09:14:05.229Z,963.09
2019-05-05T09:15:05.215Z,963.10
2019-05-05T09:16:05.236Z,963.13
2019-05-05T09:17:05.176Z,963.10
2019-05-05T09:18:05.174Z,963.04
2019-05-05T09:19:05.177Z,963.03
2019-05-05T09:20:05.177Z,963.07
2019-05-05T09:21:05.157Z,963.08
2019-05-05T09:22:08.611Z,963.05
2019-05-05T09:23:05.106Z,963.11
2019-05-05T09:24:05.411Z,963.13
2019-05-05T09:25:05.107Z,963.07
2019-05-05T09:26:05.090Z,963.08
2019-05-05T09:27:05.064Z,963.00
2019-05-05T09:28:06.128Z,963.03
2019-05-05T09:29:05.041Z,963.02
2019-05-05T09:30:05.070Z,963.00
2019-05-05T09:31:05.039Z,963.02
2019-05-05T09:32:05.039Z,963.01
2019-05-05T09:33:05.001Z,962.94
2019-05-05T09:34:04.991Z,962.91
2019-05-05T09:35:04.980Z,962.98
2019-05-05T09:36:04.979Z,962.96
2019-05-05T09:37:04.963Z,962.96
2019-05-05T09:38:04.970Z,962.99
2019-05-05T09:39:04.930Z,962.99
2019-05-05T09:40:04.939Z,963.01
2019-05-05T09:41:04.907Z,963.07
2019-05-05T09:42:04.914Z,963.02
2019-05-05T09:43:04.900Z,963.04
2019-05-05T09:44:04.921Z,963.02
2019-05-05T09:45:04.971Z,963.04
2019-05-05T09:46:04.861Z,963.04
2019-05-05T09:47:05.009Z,963.06
2019-05-05T09:48:04.844Z,963.10
2019-05-05T09:49:04.847Z,963.10
2019-05-05T09:50:04.840Z,963.12
2019-05-05T09:51:04.797Z,963.07
2019-05-05T09:52:05.108Z,963.04
2019-05-05T09:53:04.775Z,963.09
2019-05-05T09:54:13.917Z,963.09
2019-05-05T09:55:04.803Z,963.08
2019-05-05T09:56:04.743Z,963.12
2019-05-05T09:57:04.865Z,963.18
2019-05-05T09:58:04.719Z,963.21
2019-05-05T09:59:04.713Z,963.20
2019-05-05T10:00:04.731Z,963.21
2019-05-05T10:01:04.733Z,963.26
2019-05-05T10:02:04.692Z,963.23
2019-05-05T10:03:04.670Z,963.22
2019-05-05T10:04:04.651Z,963.22
2019-05-05T10:05:04.658Z,963.18
2019-05-05T10:06:05.135Z,963.23
2019-05-05T10:07:04.688Z,963.22
2019-05-05T10:08:04.611Z,963.22
2019-05-05T10:09:04.592Z,963.22
2019-05-05T10:10:04.700Z,963.19
2019-05-05T10:11:04.598Z,963.23
2019-05-05T10:12:04.940Z,963.26
2019-05-05T10:13:04.566Z,963.28
2019-05-05T10:14:04.548Z,963.25
2019-05-05T10:15:07.442Z,963.30
2019-05-05T10:16:04.525Z,963.24
2019-05-05T10:17:05.051Z,963.23
2019-05-05T10:18:04.509Z,963.19
2019-05-05T10:19:04.612Z,963.24
2019-05-05T10:20:04.511Z,963.21
2019-05-05T10:21:04.785Z,963.25
2019-05-05T10:22:04.469Z,963.27
2019-05-05T10:23:04.454Z,963.29
2019-05-05T10:24:04.604Z,963.34
2019-05-05T10:25:04.454Z,963.31
2019-05-05T10:26:04.469Z,963.34
2019-05-05T10:27:05.026Z,963.41
2019-05-05T10:28:04.501Z,963.38
2019-05-05T10:29:04.396Z,963.40
2019-05-05T10:30:04.384Z,963.38
2019-05-05T10:31:04.761Z,963.32
2019-05-05T10:32:04.743Z,963.29
2019-05-05T10:33:04.327Z,963.28
2019-05-05T10:34:04.540Z,963.32
2019-05-05T10:35:04.773Z,963.30
2019-05-05T10:36:04.313Z,963.28
2019-05-05T10:37:04.359Z,963.25
2019-05-05T10:38:04.277Z,963.30
2019-05-05T10:39:04.489Z,963.31
2019-05-05T10:40:04.276Z,963.27
2019-05-05T10:41:04.363Z,963.26
2019-05-05T10:42:04.276Z,963.27
2019-05-05T10:43:04.599Z,963.27
2019-05-05T10:44:04.204Z,963.21
2019-05-05T10:45:04.438Z,963.21
2019-05-05T10:46:04.201Z,963.19
2019-05-05T10:47:04.694Z,963.16
2019-05-05T10:48:04.306Z,963.17
2019-05-05T10:49:04.150Z,963.22
2019-05-05T10:50:05.048Z,963.16
2019-05-05T10:51:04.366Z,963.19
2019-05-05T10:52:04.136Z,963.16
2019-05-05T10:53:04.727Z,963.17
2019-05-05T10:54:04.145Z,963.16
2019-05-05T10:55:04.080Z,963.11
2019-05-05T10:56:04.504Z,963.13
2019-05-05T10:57:04.251Z,963.10
2019-05-05T10:58:04.070Z,963.13
2019-05-05T10:59:04.066Z,963.13
2019-05-05T11:00:12.292Z,963.16
2019-05-05T11:01:05.059Z,963.12
2019-05-05T11:02:05.008Z,963.20
2019-05-05T11:03:04.078Z,963.17
2019-05-05T11:04:03.997Z,963.14
2019-05-05T11:05:04.150Z,963.15
2019-05-05T11:06:04.727Z,963.12
2019-05-05T11:07:04.386Z,963.20
2019-05-05T11:08:04.417Z,963.15
2019-05-05T11:09:04.443Z,963.14
2019-05-05T11:10:03.929Z,963.15
2019-05-05T11:11:04.316Z,963.22
2019-05-05T11:12:03.934Z,963.16
2019-05-05T11:13:03.887Z,963.11
2019-05-05T11:14:03.889Z,963.16
2019-05-05T11:15:04.142Z,963.16
2019-05-05T11:16:04.079Z,963.18
2019-05-05T11:17:04.319Z,963.18
2019-05-05T11:18:04.142Z,963.18
2019-05-05T11:19:04.392Z,963.16
2019-05-05T11:20:03.840Z,963.17
2019-05-05T11:21:04.627Z,963.15
2019-05-05T11:22:03.806Z,963.18
2019-05-05T11:23:04.881Z,963.14
2019-05-05T11:24:03.825Z,963.18
2019-05-05T11:25:05.110Z,963.19
2019-05-05T11:26:03.746Z,963.24
2019-05-05T11:27:04.431Z,963.16
2019-05-05T11:28:03.747Z,963.23
2019-05-05T11:29:04.229Z,963.27
2019-05-05T11:30:04.087Z,963.23
2019-05-05T11:31:04.469Z,963.23
2019-05-05T11:32:03.698Z,963.27
2019-05-05T11:33:04.064Z,963.25
2019-05-05T11:34:03.644Z,963.26
2019-05-05T11:35:04.745Z,963.28
2019-05-05T11:36:04.431Z,963.29
2019-05-05T11:37:03.795Z,963.26
2019-05-05T11:38:03.666Z,963.30
2019-05-05T11:39:04.067Z,963.30
2019-05-05T11:40:04.212Z,963.32
2019-05-05T11:41:04.953Z,963.37
2019-05-05T11:42:04.382Z,963.37
2019-05-05T11:43:03.860Z,963.36
2019-05-05T11:44:04.106Z,963.39
2019-05-05T11:45:04.255Z,963.40
2019-05-05T11:46:03.511Z,963.40
2019-05-05T11:47:03.752Z,963.37
2019-05-05T11:48:03.499Z,963.34
2019-05-05T11:49:04.945Z,963.36
2019-05-05T11:50:04.396Z,963.38
2019-05-05T11:51:04.467Z,963.28
2019-05-05T11:52:04.588Z,963.32
2019-05-05T11:53:03.942Z,963.34
2019-05-05T11:54:04.667Z,963.34
2019-05-05T11:55:11.623Z,963.32
2019-05-05T11:56:04.176Z,963.31
2019-05-05T11:57:04.360Z,963.28
2019-05-05T11:58:03.637Z,963.37
2019-05-05T11:59:04.021Z,963.29
2019-05-05T12:00:03.889Z,963.29
2019-05-05T12:01:03.808Z,963.25
2019-05-05T12:02:03.874Z,963.35
2019-05-05T12:03:03.930Z,963.33
2019-05-05T12:04:04.046Z,963.33
2019-05-05T12:05:04.544Z,963.34
2019-05-05T12:06:04.169Z,963.31
2019-05-05T12:07:04.048Z,963.31
2019-05-05T12:08:03.933Z,963.31
2019-05-05T12:09:03.283Z,963.33
2019-05-05T12:10:03.246Z,963.32
2019-05-05T12:11:04.583Z,963.32
2019-05-05T12:12:03.772Z,963.33
2019-05-05T12:13:04.017Z,963.39
2019-05-05T12:14:03.865Z,963.36
2019-05-05T12:15:04.351Z,963.43
2019-05-05T12:16:04.553Z,963.37
2019-05-05T12:17:04.571Z,963.33
2019-05-05T12:18:03.848Z,963.40
2019-05-05T12:19:03.173Z,963.37
2019-05-05T12:20:04.734Z,963.42
2019-05-05T12:21:05.217Z,963.41
2019-05-05T12:22:03.112Z,963.42
2019-05-05T12:23:04.653Z,963.45
2019-05-05T12:24:03.878Z,963.39
2019-05-05T12:25:04.091Z,963.41
2019-05-05T12:26:04.676Z,963.39
2019-05-05T12:27:03.665Z,963.40
2019-05-05T12:28:04.426Z,963.39